createdAt,value
2019-04-27T00:03:23.420Z,39.13
2019-04-27T00:08:45.704Z,39.17
2019-04-27T00:14:00.201Z,39.24
2019-04-27T00:19:27.283Z,39.33
2019-04-27T00:24:55.828Z,39.40
2019-04-27T00:30:10.761Z,39.46
2019-04-27T00:35:29.002Z,39.53
2019-04-27T00:40:48.422Z,39.58
2019-04-27T00:46:22.944Z,39.63
2019-04-27T00:51:35.111Z,39.67
2019-04-27T00:57:03.198Z,39.71
2019-04-27T01:02:23.375Z,39.75
2019-04-27T01:07:34.088Z,39.76
2019-04-27T01:12:45.705Z,39.77
2019-04-27T01:18:20.680Z,39.82
2019-04-27T01:23:40.899Z,39.84
2019-04-27T01:29:16.188Z,39.87
2019-04-27T01:34:26.466Z,39.87
2019-04-27T01:39:38.811Z,39.89
2019-04-27T01:44:53.581Z,39.91
2019-04-27T01:50:06.214Z,39.92
2019-04-27T01:55:18.901Z,39.91
2019-04-27T02:01:11.271Z,39.92
2019-04-27T02:06:27.459Z,39.95
2019-04-27T02:11:41.642Z,39.97
2019-04-27T02:16:55.519Z,40.04
2019-04-27T02:22:13.862Z,40.09
2019-04-27T02:27:30.111Z,40.16
2019-04-27T02:32:55.569Z,40.15
2019-04-27T02:38:12.813Z,40.17
2019-04-27T02:43:54.527Z,40.19
2019-04-27T02:49:07.205Z,40.24
2019-04-27T02:54:40.328Z,40.27
2019-04-27T02:59:55.638Z,40.31
2019-04-27T03:05:12.703Z,40.39
2019-04-27T03:10:23.512Z,40.50
2019-04-27T03:15:52.865Z,40.58
2019-04-27T03:21:14.228Z,40.62
2019-04-27T03:32:13.605Z,40.78
2019-04-27T03:37:32.407Z,40.80
2019-04-27T03:42:46.689Z,40.86
2019-04-27T03:48:20.826Z,40.98
2019-04-27T03:54:05.920Z,41.07
2019-04-27T03:59:55.614Z,41.18
2019-04-27T04:05:32.391Z,41.32
2019-04-27T04:10:59.764Z,41.50
2019-04-27T04:16:31.545Z,41.70
2019-04-27T04:21:43.291Z,41.95
2019-04-27T04:27:00.316Z,42.05
2019-04-27T04:32:12.136Z,42.11
2019-04-27T04:37:25.004Z,42.17
2019-04-27T04:42:43.084Z,42.21
2019-04-27T04:48:05.718Z,42.23
2019-04-27T04:53:14.314Z,42.25
2019-04-27T04:58:30.378Z,42.29
2019-04-27T05:04:32.030Z,42.36
2019-04-27T05:09:45.850Z,42.43
2019-04-27T05:15:04.578Z,42.56
2019-04-27T05:20:34.433Z,42.65
2019-04-27T05:25:52.159Z,42.79
2019-04-27T05:31:29.361Z,42.87
2019-04-27T05:36:48.927Z,43.00
2019-04-27T05:42:01.968Z,43.07
2019-04-27T05:47:53.224Z,43.21
2019-04-27T05:53:18.955Z,43.35
2019-04-27T05:58:46.869Z,43.53
2019-04-27T06:03:59.912Z,43.72
2019-04-27T06:09:13.810Z,43.88
2019-04-27T06:14:30.474Z,44.03
2019-04-27T06:19:46.005Z,44.48
2019-04-27T06:25:00.543Z,44.48
2019-04-27T06:30:23.375Z,44.43
2019-04-27T06:35:42.978Z,44.58
2019-04-27T06:41:09.976Z,44.75
2019-04-27T06:46:28.778Z,44.90
2019-04-27T06:51:41.179Z,45.04
2019-04-27T06:56:59.280Z,45.17
2019-04-27T07:02:12.064Z,45.33
2019-04-27T07:07:23.721Z,45.46
2019-04-27T07:18:12.777Z,45.84
2019-04-27T07:23:45.585Z,45.96
2019-04-27T07:28:59.412Z,46.13
2019-04-27T07:34:14.658Z,46.28
2019-04-27T07:39:25.617Z,46.35
2019-04-27T07:44:53.985Z,46.48
2019-04-27T07:50:07.460Z,46.48
2019-04-27T07:55:20.426Z,46.58
2019-04-27T08:00:31.478Z,46.65
2019-04-27T08:11:52.763Z,46.69
2019-04-27T08:17:28.354Z,46.77
2019-04-27T08:22:41.149Z,46.84
2019-04-27T08:28:01.968Z,46.89
2019-04-27T08:33:13.920Z,46.87
2019-04-27T08:38:31.658Z,46.84
2019-04-27T08:43:42.800Z,46.78
2019-04-27T08:48:58.689Z,46.14
2019-04-27T08:54:14.979Z,45.67
2019-04-27T08:59:30.364Z,45.49
2019-04-27T09:05:05.070Z,45.51
2019-04-27T09:10:24.524Z,45.59
2019-04-27T09:15:41.514Z,45.72
2019-04-27T09:20:59.981Z,45.60
2019-04-27T09:26:12.923Z,45.34
2019-04-27T09:31:23.462Z,45.02
2019-04-27T09:36:37.590Z,44.71
2019-04-27T09:41:57.208Z,44.46
2019-04-27T09:47:10.041Z,44.36
2019-04-27T09:52:28.704Z,44.33
2019-04-27T09:57:41.926Z,44.29
2019-04-27T10:02:58.678Z,44.17
2019-04-27T10:08:30.713Z,44.06
2019-04-27T10:14:05.928Z,44.02
2019-04-27T10:19:28.277Z,43.97
2019-04-27T10:24:39.874Z,43.82
2019-04-27T10:29:50.047Z,43.48
2019-04-27T10:35:02.464Z,43.44
2019-04-27T10:40:16.184Z,43.42
2019-04-27T10:45:26.842Z,43.30
2019-04-27T10:50:43.029Z,43.09
2019-04-27T10:55:56.562Z,42.63
2019-04-27T11:01:11.036Z,42.46
2019-04-27T11:06:50.704Z,42.15
2019-04-27T11:12:07.186Z,41.72
2019-04-27T11:17:17.482Z,41.56
2019-04-27T11:22:31.172Z,41.36
2019-04-27T11:27:50.566Z,41.34
2019-04-27T11:33:06.086Z,41.12
2019-04-27T11:38:14.384Z,41.12
2019-04-27T11:43:46.483Z,41.11
2019-04-27T11:48:59.686Z,41.09
2019-04-27T11:54:33.026Z,41.05
2019-04-27T12:00:07.470Z,40.99
2019-04-27T12:05:22.811Z,40.97
2019-04-27T12:10:40.854Z,41.03
2019-04-27T12:15:56.835Z,41.10
2019-04-27T12:21:08.926Z,41.04
2019-04-27T12:26:46.085Z,40.64
2019-04-27T12:32:02.818Z,40.29
2019-04-27T12:37:19.191Z,39.85
2019-04-27T12:42:32.335Z,39.50
2019-04-27T12:47:48.421Z,39.70
2019-04-27T12:53:09.837Z,39.89
2019-04-27T12:58:50.855Z,39.85
2019-04-27T13:04:04.109Z,40.00
2019-04-27T13:09:17.636Z,40.18
2019-04-27T13:14:29.885Z,40.27
2019-04-27T13:19:42.172Z,40.33
2019-04-27T13:25:01.119Z,40.29
2019-04-27T13:30:20.449Z,40.07
2019-04-27T13:35:35.472Z,39.75
2019-04-27T13:41:10.341Z,39.68
2019-04-27T13:47:00.444Z,39.83
2019-04-27T13:52:26.381Z,40.13
2019-04-27T13:57:56.506Z,40.58
2019-04-27T14:03:28.708Z,40.90
2019-04-27T14:08:39.103Z,41.33
2019-04-27T14:13:52.280Z,41.55
2019-04-27T14:19:28.740Z,41.74
2019-04-27T14:24:48.851Z,41.77
2019-04-27T14:35:33.019Z,41.66
2019-04-27T14:41:11.321Z,41.65
2019-04-27T14:46:24.048Z,41.56
2019-04-27T14:51:46.403Z,41.05
2019-04-27T14:56:56.104Z,40.56
2019-04-27T15:02:08.688Z,40.36
2019-04-27T15:07:18.216Z,40.31
2019-04-27T15:13:09.010Z,40.38
2019-04-27T15:18:29.872Z,40.34
2019-04-27T15:23:41.406Z,40.16
2019-04-27T15:35:00.529Z,39.72
2019-04-27T15:40:35.854Z,39.58
2019-04-27T15:45:53.369Z,39.68
2019-04-27T15:51:29.195Z,39.62
2019-04-27T15:56:58.915Z,39.46
2019-04-27T16:02:15.934Z,39.53
2019-04-27T16:07:33.990Z,39.57
2019-04-27T16:13:05.814Z,39.55
2019-04-27T16:18:05.508Z,39.54
2019-04-27T16:23:13.157Z,39.42
2019-04-27T16:28:28.849Z,38.86
2019-04-27T16:34:02.849Z,38.79
2019-04-27T16:39:18.128Z,38.90
2019-04-27T16:44:49.506Z,38.90
2019-04-27T16:50:08.444Z,38.88
2019-04-27T16:55:23.425Z,38.93
2019-04-27T17:00:40.855Z,39.08
2019-04-27T17:05:53.131Z,39.24
2019-04-27T17:11:11.395Z,39.35
2019-04-27T17:16:49.287Z,39.42
2019-04-27T17:22:03.885Z,39.47
2019-04-27T17:27:29.010Z,39.54
2019-04-27T17:33:11.781Z,39.61
2019-04-27T17:38:47.360Z,39.67
2019-04-27T17:43:59.440Z,39.04
2019-04-27T17:49:33.980Z,39.05
2019-04-27T17:54:47.527Z,40.35
2019-04-27T18:00:03.446Z,41.59
2019-04-27T18:05:17.870Z,41.83
2019-04-27T18:10:36.261Z,41.82
2019-04-27T18:15:52.976Z,41.92
2019-04-27T18:21:07.236Z,41.96
2019-04-27T18:26:27.797Z,41.96
2019-04-27T18:31:46.428Z,42.02
2019-04-27T18:36:59.147Z,41.79
2019-04-27T18:42:18.890Z,41.68
2019-04-27T18:47:35.316Z,41.65
2019-04-27T18:52:58.168Z,41.69
2019-04-27T18:58:11.808Z,41.52
2019-04-27T19:03:22.385Z,41.49
2019-04-27T19:08:35.798Z,41.35
2019-04-27T19:13:45.609Z,41.27
2019-04-27T19:19:12.291Z,41.32
2019-04-27T19:24:23.619Z,41.38
2019-04-27T19:29:47.981Z,41.45
2019-04-27T19:35:19.941Z,41.48
2019-04-27T19:41:10.267Z,41.46
2019-04-27T19:46:22.355Z,41.39
2019-04-27T19:51:29.465Z,41.33
2019-04-27T19:56:38.395Z,41.31
2019-04-27T20:02:18.508Z,41.32
2019-04-27T20:07:32.397Z,41.27
2019-04-27T20:12:56.040Z,41.32
2019-04-27T20:18:10.830Z,41.30
2019-04-27T20:23:22.424Z,41.34
2019-04-27T20:28:32.449Z,41.33
2019-04-27T20:33:42.789Z,41.33
2019-04-27T20:39:05.740Z,41.34
2019-04-27T20:44:17.382Z,41.34
2019-04-27T20:49:30.901Z,41.31
2019-04-27T20:54:44.863Z,41.33
2019-04-27T21:00:17.943Z,41.33
2019-04-27T21:05:51.077Z,41.34
2019-04-27T21:11:05.731Z,41.31
2019-04-27T21:16:37.252Z,41.29
2019-04-27T21:21:53.519Z,41.29
2019-04-27T21:27:13.886Z,41.29
2019-04-27T21:32:43.348Z,41.34
2019-04-27T21:38:14.409Z,41.41
2019-04-27T21:43:43.806Z,41.54
2019-04-27T21:48:54.988Z,41.58
2019-04-27T21:54:14.611Z,41.68
2019-04-27T21:59:30.920Z,41.80
2019-04-27T22:04:49.488Z,41.92
2019-04-27T22:10:07.214Z,41.94
2019-04-27T22:15:22.558Z,42.06
2019-04-27T22:20:38.797Z,42.10
2019-04-27T22:25:54.142Z,42.13
2019-04-27T22:31:12.420Z,42.18
2019-04-27T22:36:28.173Z,42.20
2019-04-27T22:41:48.839Z,42.28
2019-04-27T22:47:01.640Z,42.28
2019-04-27T22:52:23.294Z,42.39
2019-04-27T22:58:11.719Z,42.42
2019-04-27T23:03:46.724Z,42.42
2019-04-27T23:09:01.657Z,42.35
2019-04-27T23:14:18.823Z,42.34
2019-04-27T23:19:32.556Z,42.34
2019-04-27T23:24:42.655Z,42.37
2019-04-27T23:29:58.473Z,42.43
2019-04-27T23:35:09.932Z,42.54
2019-04-27T23:40:24.392Z,42.68
2019-04-27T23:45:34.852Z,42.73
2019-04-27T23:50:49.320Z,42.72
2019-04-27T23:56:01.895Z,42.76
